Time;durP1;ratioP1;P1;durP2;ratioP2;P2;SDS_P1;SDS_P2;PMS_P1;PMS_P2;Temp;Humidity;BMP_temperature;BMP_pressure;BME280_temperature;BME280_humidity;BME280_pressure;Samples;Min_cycle;Max_cycle;Signal;HPM_P1;HPM_P2
2023/03/11 00:02:14;;;;;;;0.95;0.60;;;2.40;99.90;;;;;;5050851;28;20696;-73
2023/03/11 00:04:39;;;;;;;0.90;0.80;;;2.30;99.90;;;;;;5050790;28;20188;-73
2023/03/11 00:07:07;;;;;;;0.70;0.70;;;2.30;99.90;;;;;;5050660;28;20521;-73
2023/03/11 00:09:33;;;;;;;2.25;0.70;;;2.30;99.90;;;;;;5050601;28;20250;-73
2023/03/11 00:11:59;;;;;;;1.75;0.60;;;2.30;99.90;;;;;;5050562;28;20302;-73
2023/03/11 00:14:25;;;;;;;0.80;0.60;;;2.20;99.90;;;;;;5050328;28;20603;-73
2023/03/11 00:16:50;;;;;;;1.43;0.70;;;2.30;99.90;;;;;;5051008;28;20188;-73
2023/03/11 00:19:16;;;;;;;0.80;0.60;;;2.20;99.90;;;;;;5050367;28;20211;-73
2023/03/11 00:21:42;;;;;;;0.80;0.60;;;2.30;99.90;;;;;;5050373;28;20175;-73
2023/03/11 00:24:07;;;;;;;1.83;0.57;;;2.20;99.90;;;;;;5050416;28;20188;-73
2023/03/11 00:26:33;;;;;;;1.27;0.60;;;2.20;99.90;;;;;;5050212;28;20184;-73
2023/03/11 00:28:59;;;;;;;0.83;0.70;;;2.10;99.90;;;;;;5050224;28;20199;-73
2023/03/11 00:31:25;;;;;;;1.30;0.60;;;2.10;99.90;;;;;;5050149;28;20181;-72
2023/03/11 00:33:51;;;;;;;1.27;0.60;;;2.10;99.90;;;;;;5050040;28;20183;-73
2023/03/11 00:36:27;;;;;;;1.17;0.70;;;2.20;99.90;;;;;;5049939;28;20700;-73
2023/03/11 00:38:53;;;;;;;0.95;0.50;;;2.10;99.90;;;;;;5050115;28;20683;-73
2023/03/11 00:41:19;;;;;;;0.80;0.50;;;2.10;99.90;;;;;;5050272;28;20188;-73
2023/03/11 00:43:44;;;;;;;0.60;0.50;;;2.10;99.90;;;;;;5050030;28;20817;-73
2023/03/11 00:46:10;;;;;;;1.00;0.60;;;2.20;99.90;;;;;;5049968;28;20422;-73
2023/03/11 00:48:35;;;;;;;0.80;0.60;;;2.10;99.90;;;;;;5049806;28;20204;-73
2023/03/11 00:51:01;;;;;;;0.70;0.50;;;2.10;99.90;;;;;;5049919;28;20207;-72
2023/03/11 00:53:26;;;;;;;0.80;0.60;;;2.10;99.90;;;;;;5049845;28;20205;-73
2023/03/11 00:55:52;;;;;;;1.20;0.40;;;2.10;99.90;;;;;;5049644;28;20560;-73
2023/03/11 00:58:18;;;;;;;0.70;0.60;;;2.10;99.90;;;;;;5049679;28;20283;-72
2023/03/11 01:00:43;;;;;;;1.67;0.67;;;2.10;99.90;;;;;;5049729;28;20596;-72
2023/03/11 01:03:09;;;;;;;0.80;0.70;;;2.10;99.90;;;;;;5049763;28;20279;-72
2023/03/11 01:05:35;;;;;;;1.73;0.90;;;2.20;99.90;;;;;;5049725;28;20190;-72
2023/03/11 01:08:02;;;;;;;1.40;0.60;;;2.20;99.90;;;;;;5049435;28;20418;-72
2023/03/11 01:10:29;;;;;;;1.48;0.70;;;2.20;99.90;;;;;;5049476;28;20212;-72
2023/03/11 01:12:55;;;;;;;1.35;0.50;;;2.20;99.90;;;;;;5049290;28;20625;-72
2023/03/11 01:15:24;;;;;;;3.03;1.37;;;2.20;99.90;;;;;;5049381;28;20215;-73
2023/03/11 01:17:50;;;;;;;1.63;0.80;;;2.30;99.90;;;;;;5049216;28;20235;-72
2023/03/11 01:20:16;;;;;;;0.97;0.63;;;2.30;99.90;;;;;;5049366;28;20290;-72
2023/03/11 01:22:42;;;;;;;0.97;0.60;;;2.40;99.90;;;;;;5049172;28;20302;-72
2023/03/11 01:25:11;;;;;;;2.40;0.60;;;2.40;99.90;;;;;;5048495;28;20419;-73
2023/03/11 01:27:37;;;;;;;0.80;0.50;;;2.40;99.90;;;;;;5049103;28;20741;-72
2023/03/11 01:30:03;;;;;;;2.10;0.67;;;2.40;99.90;;;;;;5048947;28;20572;-72
2023/03/11 01:32:29;;;;;;;0.80;0.80;;;2.40;99.90;;;;;;5049297;28;20275;-72
2023/03/11 01:34:55;;;;;;;1.10;0.80;;;2.40;99.90;;;;;;5048910;28;20422;-72
2023/03/11 01:37:20;;;;;;;2.60;0.80;;;2.40;99.90;;;;;;5048846;28;20212;-72
2023/03/11 01:39:46;;;;;;;1.33;0.90;;;2.40;99.90;;;;;;5049153;28;20324;-72
2023/03/11 01:42:11;;;;;;;1.20;0.70;;;2.40;99.90;;;;;;5048728;28;20212;-72
2023/03/11 01:44:37;;;;;;;1.43;0.80;;;2.50;99.90;;;;;;5048832;28;20532;-72
2023/03/11 01:47:03;;;;;;;1.53;0.90;;;2.40;99.90;;;;;;5048928;28;20303;-72
2023/03/11 01:49:28;;;;;;;1.07;0.87;;;2.50;99.90;;;;;;5050993;28;20265;-72
2023/03/11 01:51:59;;;;;;;1.80;0.83;;;2.50;99.90;;;;;;5051030;28;20185;-72
2023/03/11 01:54:29;;;;;;;1.00;0.80;;;2.60;99.90;;;;;;5050910;28;20220;-72
2023/03/11 01:56:56;;;;;;;1.42;0.80;;;2.50;99.90;;;;;;5050111;28;20280;-72
2023/03/11 01:59:25;;;;;;;4.30;1.05;;;2.50;99.90;;;;;;5050008;28;20211;-72
2023/03/11 02:02:03;;;;;;;3.20;0.80;;;2.50;99.90;;;;;;5049068;28;20181;-72
2023/03/11 02:04:33;;;;;;;1.23;0.80;;;2.60;99.90;;;;;;5048583;28;20707;-73
2023/03/11 02:06:59;;;;;;;1.85;1.20;;;2.50;99.90;;;;;;5048353;28;20185;-73
2023/03/11 02:09:25;;;;;;;1.02;0.93;;;2.40;99.90;;;;;;5048324;28;20215;-72
2023/03/11 02:11:52;;;;;;;0.70;0.70;;;2.40;99.90;;;;;;5046724;28;20191;-72
2023/03/11 02:14:19;;;;;;;2.28;1.40;;;2.30;99.90;;;;;;5048423;28;20648;-73
2023/03/11 02:16:44;;;;;;;2.55;1.00;;;2.30;99.90;;;;;;5048370;28;20661;-72
2023/03/11 02:19:28;;;;;;;3.37;1.60;;;2.30;99.90;;;;;;5048453;28;20212;-73
2023/03/11 02:21:55;;;;;;;3.55;1.10;;;2.30;99.90;;;;;;5048198;28;20233;-73
2023/03/11 02:24:40;;;;;;;1.10;1.00;;;2.20;99.90;;;;;;5048306;28;20188;-73
2023/03/11 02:27:08;;;;;;;1.80;0.93;;;2.20;99.90;;;;;;5048291;28;20181;-73
2023/03/11 02:29:36;;;;;;;4.82;1.10;;;2.20;99.90;;;;;;5048259;28;20314;-72
2023/03/11 02:32:05;;;;;;;3.50;1.13;;;2.20;99.90;;;;;;5049021;28;20189;-73
2023/03/11 02:34:34;;;;;;;1.33;1.23;;;2.20;99.90;;;;;;5048653;28;20656;-72
2023/03/11 02:37:03;;;;;;;4.50;1.45;;;2.10;99.90;;;;;;5049171;28;20212;-72
2023/03/11 02:39:35;;;;;;;5.03;1.48;;;2.10;99.90;;;;;;5053132;28;20679;-73
2023/03/11 02:42:10;;;;;;;1.23;1.02;;;2.00;99.90;;;;;;5053141;28;20211;-73
2023/03/11 02:44:38;;;;;;;2.65;1.08;;;2.00;99.90;;;;;;5053346;28;20175;-72
2023/03/11 02:47:04;;;;;;;5.85;1.13;;;2.00;99.90;;;;;;5053051;28;20191;-73
2023/03/11 02:49:30;;;;;;;1.70;1.13;;;2.00;99.90;;;;;;5052807;28;20198;-73
2023/03/11 02:51:56;;;;;;;2.47;1.00;;;2.00;99.90;;;;;;5053017;28;20203;-73
2023/03/11 02:54:22;;;;;;;2.97;1.00;;;2.00;99.90;;;;;;5052868;28;20556;-72
2023/03/11 02:56:47;;;;;;;1.20;1.10;;;2.00;99.90;;;;;;5052936;28;20196;-72
2023/03/11 02:59:13;;;;;;;0.90;0.70;;;1.90;99.90;;;;;;5051972;28;20204;-72
2023/03/11 03:01:38;;;;;;;3.17;1.20;;;1.90;99.90;;;;;;5052084;28;20823;-72
2023/03/11 03:04:04;;;;;;;1.20;0.90;;;1.80;99.90;;;;;;5051920;28;20216;-72
2023/03/11 03:06:30;;;;;;;1.33;0.90;;;1.90;99.90;;;;;;5051855;28;20683;-71
2023/03/11 03:08:56;;;;;;;1.33;0.87;;;1.80;99.90;;;;;;5051782;28;20204;-72
2023/03/11 03:11:22;;;;;;;0.85;0.70;;;1.70;99.90;;;;;;5051853;28;20184;-71
2023/03/11 03:13:47;;;;;;;1.37;0.80;;;1.80;99.90;;;;;;5051588;28;20242;-72
2023/03/11 03:16:13;;;;;;;2.90;0.90;;;1.80;99.90;;;;;;5051606;28;20215;-72
2023/03/11 03:18:39;;;;;;;0.90;0.70;;;1.80;99.90;;;;;;5051678;28;20223;-72
2023/03/11 03:21:05;;;;;;;1.67;0.77;;;1.70;99.90;;;;;;5051551;28;20195;-72
2023/03/11 03:23:34;;;;;;;5.25;1.13;;;1.70;99.90;;;;;;5051302;28;20213;-72
2023/03/11 03:26:00;;;;;;;3.25;0.93;;;1.70;99.90;;;;;;5051345;28;20672;-72
2023/03/11 03:28:26;;;;;;;1.77;0.70;;;1.60;99.90;;;;;;5051140;28;20203;-72
2023/03/11 03:30:52;;;;;;;2.72;1.15;;;1.50;99.90;;;;;;5051910;28;20184;-72
2023/03/11 03:33:18;;;;;;;1.33;0.77;;;1.50;99.90;;;;;;5051424;28;20610;-72
2023/03/11 03:35:44;;;;;;;1.50;1.00;;;1.40;99.90;;;;;;5051217;28;20979;-72
2023/03/11 03:38:10;;;;;;;1.15;0.85;;;1.20;99.90;;;;;;5051132;28;20737;-72
2023/03/11 03:40:37;;;;;;;1.42;0.95;;;1.10;99.90;;;;;;5051680;28;20227;-72
2023/03/11 03:43:03;;;;;;;3.00;2.70;;;1.10;99.90;;;;;;5051623;28;20229;-72
2023/03/11 03:45:29;;;;;;;2.97;1.40;;;1.10;99.90;;;;;;5050948;28;20604;-72
2023/03/11 03:47:55;;;;;;;1.27;1.10;;;1.10;99.90;;;;;;5050399;28;20265;-72
2023/03/11 03:50:20;;;;;;;2.40;1.00;;;1.10;99.90;;;;;;5051149;28;20945;-73
2023/03/11 03:52:47;;;;;;;4.50;0.70;;;1.00;99.90;;;;;;5051204;28;20195;-73
2023/03/11 03:55:12;;;;;;;1.15;0.70;;;1.00;99.90;;;;;;5050785;28;20199;-72
2023/03/11 03:57:38;;;;;;;1.47;1.03;;;0.90;99.90;;;;;;5050953;28;20193;-71
2023/03/11 04:00:07;;;;;;;1.20;1.10;;;0.90;99.90;;;;;;5050654;28;20211;-71
2023/03/11 04:02:33;;;;;;;2.45;1.00;;;0.90;99.90;;;;;;5050736;28;20215;-71
2023/03/11 04:04:59;;;;;;;2.20;0.80;;;0.90;99.90;;;;;;5050670;28;20190;-71
2023/03/11 04:07:24;;;;;;;1.87;0.80;;;0.80;99.90;;;;;;5050581;28;20854;-71
2023/03/11 04:09:50;;;;;;;0.90;0.70;;;0.80;99.90;;;;;;5050562;28;20739;-71
2023/03/11 04:12:16;;;;;;;2.13;1.00;;;0.70;99.90;;;;;;5050508;28;20593;-71
2023/03/11 04:14:43;;;;;;;2.00;0.85;;;0.70;99.90;;;;;;5050477;28;20199;-71
2023/03/11 04:17:11;;;;;;;2.05;1.00;;;0.70;99.90;;;;;;5050447;28;20361;-71
2023/03/11 04:19:37;;;;;;;2.13;1.00;;;0.70;99.90;;;;;;5050428;28;20215;-71
2023/03/11 04:22:02;;;;;;;2.10;0.80;;;0.60;99.90;;;;;;5050260;28;20192;-71
2023/03/11 04:24:28;;;;;;;4.10;1.90;;;0.60;99.90;;;;;;5050314;28;20183;-71
2023/03/11 04:26:53;;;;;;;2.57;1.93;;;0.60;99.90;;;;;;5050331;28;20218;-72
2023/03/11 04:29:19;;;;;;;1.40;0.90;;;0.50;99.90;;;;;;5049937;28;20304;-72
2023/03/11 04:31:45;;;;;;;0.80;0.80;;;0.50;99.90;;;;;;5050286;28;20192;-72
2023/03/11 04:34:10;;;;;;;1.93;1.43;;;0.50;99.90;;;;;;5048974;28;20180;-71
2023/03/11 04:36:36;;;;;;;3.40;1.17;;;0.40;99.90;;;;;;5049999;28;20278;-72
2023/03/11 04:39:02;;;;;;;1.60;0.97;;;0.40;99.90;;;;;;5050013;28;20202;-71
2023/03/11 04:41:28;;;;;;;1.00;0.90;;;0.40;99.90;;;;;;5049847;28;20223;-72
2023/03/11 04:43:53;;;;;;;2.53;1.43;;;0.40;99.90;;;;;;5050308;28;20246;-71
2023/03/11 04:46:19;;;;;;;2.60;1.13;;;0.30;99.90;;;;;;5050515;28;20180;-71
2023/03/11 04:48:44;;;;;;;2.30;1.30;;;0.40;99.90;;;;;;5050155;28;20206;-72
2023/03/11 04:51:10;;;;;;;2.67;1.07;;;0.30;99.90;;;;;;5050110;28;20683;-71
2023/03/11 04:53:36;;;;;;;2.40;0.80;;;0.30;99.90;;;;;;5049763;28;20188;-71
2023/03/11 04:56:01;;;;;;;2.63;0.80;;;0.30;99.90;;;;;;5049759;28;20196;-71
2023/03/11 04:58:27;;;;;;;1.77;0.63;;;0.30;99.90;;;;;;5049705;28;20207;-71
2023/03/11 05:00:53;;;;;;;4.40;1.20;;;0.20;99.90;;;;;;5048951;28;20271;-72
2023/03/11 05:03:18;;;;;;;4.67;0.80;;;0.20;99.90;;;;;;5049930;28;20219;-72
2023/03/11 05:05:44;;;;;;;0.90;0.80;;;0.20;99.90;;;;;;5049540;28;20176;-71
2023/03/11 05:08:10;;;;;;;7.40;0.93;;;0.20;99.90;;;;;;5049505;28;20192;-72
2023/03/11 05:10:36;;;;;;;2.40;0.90;;;0.10;99.90;;;;;;5049634;28;20184;-71
2023/03/11 05:13:03;;;;;;;2.90;0.90;;;0.10;99.90;;;;;;5049591;28;20337;-72
2023/03/11 05:15:30;;;;;;;1.95;0.82;;;0.10;99.90;;;;;;5049632;28;20449;-71
2023/03/11 05:17:56;;;;;;;1.88;0.82;;;0.10;99.90;;;;;;5049291;28;20691;-71
2023/03/11 05:20:25;;;;;;;3.23;1.37;;;0.10;99.90;;;;;;5049558;28;20195;-71
2023/03/11 05:22:50;;;;;;;3.58;1.40;;;0.10;99.90;;;;;;5049848;28;20466;-71
2023/03/11 05:25:16;;;;;;;1.40;0.73;;;0.10;99.90;;;;;;5049670;28;20543;-72
2023/03/11 05:27:42;;;;;;;2.07;0.80;;;0.00;99.90;;;;;;5049827;28;20208;-71
2023/03/11 05:30:08;;;;;;;3.03;0.90;;;0.10;99.90;;;;;;5049750;28;20978;-72
2023/03/11 05:32:34;;;;;;;2.67;0.70;;;0.10;99.90;;;;;;5050193;28;20199;-71
2023/03/11 05:35:00;;;;;;;1.07;0.50;;;0.10;99.90;;;;;;5050266;28;20196;-71
2023/03/11 05:37:26;;;;;;;0.80;0.60;;;0.10;99.90;;;;;;5050122;28;20250;-71
2023/03/11 05:39:52;;;;;;;2.13;1.05;;;0.20;99.90;;;;;;5049955;28;20583;-71
2023/03/11 05:42:17;;;;;;;3.23;0.70;;;0.20;99.90;;;;;;5049869;28;20215;-71
2023/03/11 05:44:43;;;;;;;1.20;0.73;;;0.20;99.90;;;;;;5049922;28;20421;-71
2023/03/11 05:47:09;;;;;;;1.23;0.87;;;0.30;99.90;;;;;;5049872;28;20179;-71
2023/03/11 05:49:34;;;;;;;2.50;0.97;;;0.20;99.90;;;;;;5049425;28;20627;-71
2023/03/11 05:52:00;;;;;;;3.20;1.07;;;0.20;99.90;;;;;;5049570;28;20621;-71
2023/03/11 05:54:25;;;;;;;4.30;1.03;;;0.30;99.90;;;;;;5049257;28;20212;-70
2023/03/11 05:56:51;;;;;;;3.67;0.80;;;0.30;99.90;;;;;;5049303;28;20192;-71
2023/03/11 05:59:17;;;;;;;3.90;0.90;;;0.30;99.90;;;;;;5049003;28;20211;-71
2023/03/11 06:01:43;;;;;;;2.13;1.03;;;0.30;99.90;;;;;;5048729;28;20183;-70
2023/03/11 06:04:09;;;;;;;2.15;1.05;;;0.30;99.90;;;;;;5049072;28;20211;-71
2023/03/11 06:06:35;;;;;;;3.10;0.90;;;0.30;99.90;;;;;;5048797;28;20249;-71
2023/03/11 06:09:02;;;;;;;3.08;0.68;;;0.30;99.90;;;;;;5048587;28;20729;-71
2023/03/11 06:11:28;;;;;;;12.18;0.95;;;0.30;99.90;;;;;;5048643;28;20636;-70
2023/03/11 06:13:56;;;;;;;4.43;1.27;;;0.30;99.90;;;;;;5048759;28;20225;-71
2023/03/11 06:16:23;;;;;;;1.55;0.82;;;0.40;99.90;;;;;;5048567;28;20422;-71
2023/03/11 06:18:49;;;;;;;4.45;1.02;;;0.40;99.90;;;;;;5048477;28;20864;-71
2023/03/11 06:21:20;;;;;;;2.22;1.00;;;0.40;99.90;;;;;;5048389;28;20191;-71
2023/03/11 06:23:46;;;;;;;2.55;0.77;;;0.40;99.90;;;;;;5048347;28;20223;-71
2023/03/11 06:26:14;;;;;;;2.55;0.93;;;0.40;99.90;;;;;;5048985;28;20233;-71
2023/03/11 06:28:44;;;;;;;3.90;1.42;;;0.50;99.90;;;;;;5048398;28;20203;-71
2023/03/11 06:31:21;;;;;;;1.65;0.63;;;0.50;99.90;;;;;;5048422;28;20299;-71
2023/03/11 06:33:47;;;;;;;0.80;0.50;;;0.60;99.90;;;;;;5048447;28;20194;-71
2023/03/11 06:36:14;;;;;;;6.90;0.90;;;0.50;99.90;;;;;;5048511;28;20204;-70
2023/03/11 06:38:40;;;;;;;3.25;1.10;;;0.50;99.90;;;;;;5048138;28;20446;-71
2023/03/11 06:41:06;;;;;;;7.00;0.97;;;0.50;99.90;;;;;;5048124;28;20201;-70
2023/03/11 06:43:33;;;;;;;1.35;0.98;;;0.70;99.90;;;;;;5048455;28;20329;-71
2023/03/11 06:46:00;;;;;;;5.47;1.20;;;1.30;99.90;;;;;;5049511;28;20183;-71
2023/03/11 06:48:26;;;;;;;3.63;1.13;;;1.90;99.90;;;;;;5046944;28;20210;-72
2023/03/11 06:50:58;;;;;;;3.70;1.05;;;2.60;99.50;;;;;;5048163;28;20276;-72
2023/03/11 06:53:25;;;;;;;1.65;0.85;;;3.20;96.80;;;;;;5048182;28;20179;-72
2023/03/11 06:56:06;;;;;;;3.70;0.98;;;3.60;95.80;;;;;;5046612;28;20197;-71
2023/03/11 06:58:33;;;;;;;2.83;1.10;;;3.70;94.20;;;;;;5048114;28;20213;-72
2023/03/11 07:01:12;;;;;;;5.63;1.10;;;4.00;93.60;;;;;;5048071;28;20195;-71
2023/03/11 07:03:38;;;;;;;3.33;1.20;;;4.30;92.50;;;;;;5048330;28;20861;-71
2023/03/11 07:06:04;;;;;;;5.73;1.20;;;4.30;91.90;;;;;;5048599;28;20214;-71
2023/03/11 07:08:30;;;;;;;3.80;0.73;;;3.90;91.40;;;;;;5047072;28;20673;-72
2023/03/11 07:11:16;;;;;;;2.07;1.10;;;3.70;92.00;;;;;;5048258;28;20193;-72
2023/03/11 07:13:42;;;;;;;1.92;1.00;;;3.30;92.20;;;;;;5048607;28;20432;-72
2023/03/11 07:16:17;;;;;;;1.63;0.90;;;3.00;92.40;;;;;;5048541;28;20198;-72
2023/03/11 07:18:45;;;;;;;4.40;0.93;;;2.90;93.90;;;;;;5048029;28;20205;-72
2023/03/11 07:21:13;;;;;;;2.55;0.80;;;2.70;94.30;;;;;;5048120;28;20304;-72
2023/03/11 07:23:39;;;;;;;3.53;1.10;;;2.50;94.70;;;;;;5049214;28;20304;-72
2023/03/11 07:26:09;;;;;;;3.50;1.10;;;2.20;94.30;;;;;;5051690;28;20666;-72
2023/03/11 07:28:34;;;;;;;6.35;1.15;;;2.10;95.60;;;;;;5051393;28;20213;-72
2023/03/11 07:31:09;;;;;;;1.43;0.80;;;2.10;95.70;;;;;;5051454;28;20190;-72
2023/03/11 07:33:34;;;;;;;1.88;0.70;;;2.10;96.00;;;;;;5051320;28;20179;-72
2023/03/11 07:36:09;;;;;;;2.27;1.00;;;2.10;96.40;;;;;;5051364;28;20207;-72
2023/03/11 07:38:35;;;;;;;3.92;1.45;;;2.00;96.50;;;;;;5051370;28;20218;-71
2023/03/11 07:41:01;;;;;;;4.50;1.40;;;1.90;97.20;;;;;;5051309;28;20192;-72
2023/03/11 07:43:27;;;;;;;4.60;1.40;;;1.80;97.00;;;;;;5051235;28;20468;-72
2023/03/11 07:46:12;;;;;;;5.23;2.17;;;1.90;97.60;;;;;;5051120;28;20176;-72
2023/03/11 07:48:39;;;;;;;10.55;1.35;;;1.90;97.70;;;;;;5050972;28;20234;-71
2023/03/11 07:51:13;;;;;;;1.80;1.05;;;1.90;97.60;;;;;;5050892;28;20553;-71
2023/03/11 07:53:41;;;;;;;1.35;1.00;;;1.90;97.10;;;;;;5051186;28;20180;-72
2023/03/11 07:56:10;;;;;;;3.97;0.80;;;1.90;97.30;;;;;;5050931;28;20212;-72
2023/03/11 07:58:36;;;;;;;3.58;1.00;;;2.00;97.90;;;;;;5051002;28;20702;-71
2023/03/11 08:01:07;;;;;;;5.60;0.75;;;2.10;97.90;;;;;;5050914;28;20727;-72
2023/03/11 08:03:34;;;;;;;6.82;0.70;;;2.10;96.90;;;;;;5050863;28;20688;-71
2023/03/11 08:06:00;;;;;;;4.10;1.40;;;2.20;97.60;;;;;;5050695;28;20192;-72
2023/03/11 08:08:26;;;;;;;3.35;0.90;;;2.30;97.50;;;;;;5050778;28;20206;-72
2023/03/11 08:10:52;;;;;;;1.57;0.70;;;2.40;97.60;;;;;;5050546;28;20184;-72
2023/03/11 08:13:17;;;;;;;11.67;1.20;;;2.40;97.70;;;;;;5050556;28;20422;-72
2023/03/11 08:15:43;;;;;;;1.90;1.13;;;2.50;97.50;;;;;;5050477;28;20222;-72
2023/03/11 08:18:09;;;;;;;4.07;0.90;;;2.60;98.00;;;;;;5050873;28;20188;-72
2023/03/11 08:20:37;;;;;;;4.83;1.63;;;2.70;98.60;;;;;;5050631;28;20195;-71
2023/03/11 08:23:02;;;;;;;2.55;1.00;;;2.80;97.80;;;;;;5050616;28;20306;-72
2023/03/11 08:25:28;;;;;;;6.83;0.87;;;2.80;98.00;;;;;;5050820;28;20275;-72
2023/03/11 08:27:54;;;;;;;5.80;1.90;;;2.90;98.40;;;;;;5050960;28;20337;-72
2023/03/11 08:30:20;;;;;;;3.00;0.90;;;3.00;98.00;;;;;;5050283;28;20444;-72
2023/03/11 08:32:45;;;;;;;1.57;1.47;;;3.10;96.20;;;;;;5050283;28;20661;-72
2023/03/11 08:35:11;;;;;;;3.70;0.63;;;3.20;96.30;;;;;;5050215;28;20824;-72
2023/03/11 08:37:36;;;;;;;1.30;1.00;;;3.20;95.10;;;;;;5050436;28;20191;-72
2023/03/11 08:40:02;;;;;;;8.37;0.97;;;3.30;96.30;;;;;;5050295;28;20607;-72
2023/03/11 08:42:28;;;;;;;4.20;0.80;;;3.40;94.80;;;;;;5050225;28;20223;-72
2023/03/11 08:44:53;;;;;;;3.10;0.73;;;3.50;94.40;;;;;;5050104;28;20418;-72
2023/03/11 08:47:19;;;;;;;4.03;1.03;;;3.50;94.20;;;;;;5050035;28;20214;-72
2023/03/11 08:49:45;;;;;;;1.30;1.00;;;3.50;94.10;;;;;;5050426;28;20683;-72
2023/03/11 08:52:10;;;;;;;4.10;0.90;;;3.50;93.90;;;;;;5050672;28;20201;-72
2023/03/11 08:54:36;;;;;;;4.60;0.97;;;3.50;94.50;;;;;;5050634;28;20191;-72
2023/03/11 08:57:03;;;;;;;3.17;0.87;;;3.80;95.10;;;;;;5050230;28;20180;-72
2023/03/11 08:59:29;;;;;;;3.05;0.75;;;4.80;95.10;;;;;;5049653;28;20677;-72
2023/03/11 09:01:55;;;;;;;3.78;1.00;;;5.80;91.40;;;;;;5050147;28;20197;-72
2023/03/11 09:04:20;;;;;;;2.90;1.17;;;6.00;87.60;;;;;;5049706;28;20510;-72
2023/03/11 09:06:47;;;;;;;4.67;1.40;;;6.00;86.90;;;;;;5049416;28;20190;-72
2023/03/11 09:09:15;;;;;;;5.43;1.23;;;6.10;84.10;;;;;;5049584;28;20225;-72
2023/03/11 09:11:41;;;;;;;4.72;0.73;;;5.90;81.80;;;;;;5049626;28;20183;-72
2023/03/11 09:14:06;;;;;;;4.90;1.70;;;5.60;82.30;;;;;;5049625;28;20553;-72
2023/03/11 09:16:32;;;;;;;3.13;1.17;;;5.40;83.90;;;;;;5049503;28;20187;-72
2023/03/11 09:19:02;;;;;;;1.57;1.23;;;5.30;84.00;;;;;;5049478;28;20267;-72
2023/03/11 09:21:27;;;;;;;3.63;1.25;;;5.10;85.00;;;;;;5049435;28;20193;-72
2023/03/11 09:23:53;;;;;;;1.97;1.07;;;5.00;85.70;;;;;;5049260;28;20640;-72
2023/03/11 09:26:19;;;;;;;3.13;0.80;;;5.10;86.20;;;;;;5049356;28;20185;-71
2023/03/11 09:28:47;;;;;;;1.67;0.90;;;5.00;85.10;;;;;;5049162;28;20203;-72
2023/03/11 09:31:14;;;;;;;5.20;0.95;;;5.00;85.70;;;;;;5049295;28;20193;-72
2023/03/11 09:33:41;;;;;;;2.47;0.80;;;4.90;85.40;;;;;;5049208;28;20551;-72
2023/03/11 09:36:10;;;;;;;3.08;0.95;;;4.90;85.50;;;;;;5048964;28;20202;-72
2023/03/11 09:38:36;;;;;;;4.20;1.40;;;4.90;84.80;;;;;;5049082;28;20654;-72
2023/03/11 09:41:16;;;;;;;3.03;0.80;;;4.60;86.50;;;;;;5049154;28;20611;-72
2023/03/11 09:44:05;;;;;;;1.08;0.95;;;4.40;86.00;;;;;;5048896;28;20246;-72
2023/03/11 09:47:00;;;;;;;4.70;1.40;;;4.40;87.10;;;;;;5048546;28;20189;-72
2023/03/11 09:49:25;;;;;;;3.35;0.85;;;4.20;87.30;;;;;;5048978;28;20194;-72
2023/03/11 09:52:07;;;;;;;3.50;1.00;;;4.00;87.90;;;;;;5048846;28;20185;-72
2023/03/11 09:54:38;;;;;;;3.17;1.48;;;4.00;89.10;;;;;;5048926;28;20181;-72
2023/03/11 09:57:05;;;;;;;1.67;0.93;;;4.10;88.60;;;;;;5048947;28;20196;-72
2023/03/11 09:59:32;;;;;;;5.80;0.77;;;4.20;88.60;;;;;;5048641;28;20686;-72
2023/03/11 10:01:59;;;;;;;7.00;2.03;;;4.10;85.60;;;;;;5048546;28;20743;-71
2023/03/11 10:04:29;;;;;;;1.63;0.90;;;4.10;87.00;;;;;;5048490;28;20221;-72
2023/03/11 10:06:56;;;;;;;3.65;0.90;;;4.20;88.30;;;;;;5048749;28;20199;-72
2023/03/11 10:09:39;;;;;;;5.72;1.50;;;4.30;86.40;;;;;;5048711;28;20257;-72
2023/03/11 10:12:24;;;;;;;5.80;1.00;;;4.40;85.70;;;;;;5048997;28;20205;-72
2023/03/11 10:15:08;;;;;;;2.78;0.82;;;4.50;81.70;;;;;;5049020;28;20538;-72
2023/03/11 10:17:36;;;;;;;1.33;0.90;;;4.90;83.30;;;;;;5048814;28;20282;-72
2023/03/11 10:20:18;;;;;;;1.73;1.02;;;5.10;78.90;;;;;;5049078;28;20212;-72
2023/03/11 10:22:47;;;;;;;4.30;1.30;;;5.10;78.20;;;;;;5049157;28;20201;-72
2023/03/11 10:25:17;;;;;;;3.05;0.80;;;5.90;84.30;;;;;;5048940;28;20259;-72
2023/03/11 10:27:48;;;;;;;3.42;0.80;;;6.20;79.10;;;;;;5048886;28;20191;-72
2023/03/11 10:30:23;;;;;;;2.88;0.95;;;6.00;78.10;;;;;;5048636;28;20295;-72
2023/03/11 10:33:00;;;;;;;3.00;0.90;;;6.20;79.60;;;;;;5049046;28;20294;-72
2023/03/11 10:35:44;;;;;;;2.53;0.70;;;6.10;74.10;;;;;;5048537;28;20448;-72
2023/03/11 10:38:15;;;;;;;1.37;0.70;;;6.70;74.20;;;;;;5048341;28;20422;-72
2023/03/11 10:40:43;;;;;;;2.70;0.63;;;7.40;76.00;;;;;;5048217;28;20922;-72
2023/03/11 10:43:20;;;;;;;3.53;0.90;;;7.20;71.00;;;;;;5048214;28;20530;-72
2023/03/11 10:45:49;;;;;;;4.27;0.90;;;7.40;73.50;;;;;;5048046;28;20465;-72
2023/03/11 10:48:17;;;;;;;10.40;2.50;;;8.20;75.90;;;;;;5048042;28;20479;-72
2023/03/11 10:51:02;;;;;;;4.70;1.00;;;8.80;71.30;;;;;;5047943;28;20776;-72
2023/03/11 10:53:28;;;;;;;2.73;0.67;;;7.70;65.90;;;;;;5048052;28;20659;-72
2023/03/11 10:55:57;;;;;;;41.80;19.00;;;9.10;69.70;;;;;;5048019;28;20810;-72
2023/03/11 10:58:28;;;;;;;16.83;7.20;;;9.80;67.80;;;;;;5048667;28;20441;-72
2023/03/11 11:01:16;;;;;;;3.77;1.50;;;10.50;61.80;;;;;;5051988;28;20922;-72
2023/03/11 11:03:44;;;;;;;2.80;1.00;;;10.10;58.60;;;;;;5051912;28;20462;-72
2023/03/11 11:06:30;;;;;;;2.60;0.87;;;10.10;60.00;;;;;;5051916;28;20476;-72
2023/03/11 11:09:12;;;;;;;5.47;1.10;;;10.90;58.60;;;;;;5051766;28;20506;-72
2023/03/11 11:11:38;;;;;;;2.93;0.97;;;10.50;55.80;;;;;;5051784;28;20410;-72
2023/03/11 11:14:04;;;;;;;1.00;0.80;;;10.10;57.80;;;;;;5051903;28;20603;-72
2023/03/11 11:16:32;;;;;;;3.73;1.37;;;9.70;58.10;;;;;;5051889;28;20426;-72
2023/03/11 11:19:04;;;;;;;2.97;0.87;;;9.20;58.90;;;;;;5051695;28;20483;-72
2023/03/11 11:21:42;;;;;;;1.63;0.80;;;8.80;61.10;;;;;;5051716;28;20439;-72
2023/03/11 11:24:10;;;;;;;5.43;1.10;;;8.60;59.10;;;;;;5051743;28;20473;-72
2023/03/11 11:26:36;;;;;;;2.30;0.87;;;8.00;59.10;;;;;;5052811;28;20412;-71
2023/03/11 11:29:09;;;;;;;4.90;0.80;;;8.10;60.90;;;;;;5052623;28;20934;-72
2023/03/11 11:31:39;;;;;;;3.83;0.87;;;8.60;60.40;;;;;;5052338;28;20600;-72
2023/03/11 11:34:33;;;;;;;3.37;0.70;;;9.70;59.60;;;;;;5052644;28;20767;-72
2023/03/11 11:37:03;;;;;;;2.63;1.10;;;10.40;56.50;;;;;;5051792;28;20456;-72
2023/03/11 11:39:38;;;;;;;2.60;0.80;;;10.80;59.90;;;;;;5052119;28;20453;-72
2023/03/11 11:42:05;;;;;;;6.10;1.30;;;11.00;55.00;;;;;;5051971;28;20754;-72
2023/03/11 11:44:33;;;;;;;4.10;1.00;;;11.30;54.80;;;;;;5051567;28;20421;-72
2023/03/11 11:47:16;;;;;;;1.17;0.80;;;11.70;54.00;;;;;;5051237;28;20789;-72
2023/03/11 11:49:58;;;;;;;5.33;1.03;;;12.30;53.40;;;;;;5051167;28;20434;-72
2023/03/11 11:52:29;;;;;;;3.00;1.00;;;12.50;54.20;;;;;;5051189;28;20432;-72
2023/03/11 11:55:05;;;;;;;2.43;0.90;;;12.50;49.90;;;;;;5051011;28;20431;-72
2023/03/11 11:57:31;;;;;;;3.07;1.40;;;12.80;53.00;;;;;;5051128;28;20440;-72
2023/03/11 11:59:57;;;;;;;2.57;0.90;;;12.60;52.20;;;;;;5050851;28;20445;-72
2023/03/11 12:03:04;;;;;;;5.87;1.30;;;12.80;52.50;;;;;;5050657;28;20200;-72
2023/03/11 12:05:34;;;;;;;1.40;1.00;;;12.20;52.30;;;;;;5050596;28;20275;-72
2023/03/11 12:08:24;;;;;;;5.10;1.30;;;12.10;53.50;;;;;;5050876;28;20422;-72
2023/03/11 12:11:05;;;;;;;3.90;1.13;;;11.90;52.50;;;;;;5050266;28;20411;-72
2023/03/11 12:14:08;;;;;;;3.23;0.97;;;11.40;51.70;;;;;;5050661;28;20457;-72
2023/03/11 12:16:50;;;;;;;4.83;1.30;;;11.30;51.50;;;;;;5050418;28;20982;-72
2023/03/11 12:19:40;;;;;;;1.40;1.23;;;11.50;53.00;;;;;;5050313;28;20470;-72
2023/03/11 12:22:43;;;;;;;3.50;1.40;;;11.40;52.30;;;;;;5050262;28;20420;-73
2023/03/11 12:25:39;;;;;;;4.23;1.80;;;11.70;51.70;;;;;;5050334;28;20418;-72
2023/03/11 12:28:27;;;;;;;3.10;1.40;;;11.50;50.40;;;;;;5050661;28;20420;-72
2023/03/11 12:30:58;;;;;;;2.70;1.20;;;12.00;51.00;;;;;;5047602;28;20435;-72
2023/03/11 12:33:47;;;;;;;3.80;1.40;;;12.50;50.20;;;;;;5051699;28;20477;-72
2023/03/11 12:36:31;;;;;;;2.60;1.23;;;12.60;49.10;;;;;;5050587;28;20507;-72
2023/03/11 12:38:57;;;;;;;5.60;1.20;;;12.20;46.70;;;;;;5050561;28;20458;-72
2023/03/11 12:41:38;;;;;;;2.10;0.87;;;12.30;47.50;;;;;;5051019;28;21007;-73
2023/03/11 12:44:21;;;;;;;7.00;0.80;;;12.20;48.50;;;;;;5053716;28;20543;-71
2023/03/11 12:47:07;;;;;;;6.93;1.10;;;12.20;49.40;;;;;;5050269;28;20424;-72
2023/03/11 12:49:35;;;;;;;4.57;1.07;;;11.90;49.70;;;;;;5045993;28;20825;-72
2023/03/11 12:52:14;;;;;;;5.80;1.20;;;12.00;49.40;;;;;;5049977;28;20927;-71
2023/03/11 12:54:48;;;;;;;2.23;0.70;;;11.60;47.70;;;;;;5049911;28;20445;-72
2023/03/11 12:57:19;;;;;;;2.93;1.27;;;12.10;48.40;;;;;;5049876;28;20408;-72
2023/03/11 13:00:17;;;;;;;2.20;1.10;;;12.00;47.90;;;;;;5049574;28;20445;-72
2023/03/11 13:03:07;;;;;;;3.13;1.30;;;12.00;49.10;;;;;;5046603;28;20485;-72
2023/03/11 13:05:45;;;;;;;2.43;1.50;;;11.10;46.40;;;;;;5049614;28;20438;-71
2023/03/11 13:08:31;;;;;;;1.90;1.00;;;10.50;47.60;;;;;;5049462;28;20415;-72